Main page
METAR-TAF:

METAR-TAF

Airports :

Danbury Municipal Airport

Danbury, Connecticut, United States

latitude: 41-22-18N, longitude: 073-29-04W, elevation: 456 ft

Current weather observation

The report was made 38 minutes ago, at 16:53 UTC
Wind 7 mph from the West/Northwest
Temperature 61°F
Humidity 68%
Pressure 30.01 in. Hg
Visibility: 10 miles
Few clouds at a height of 3100 ft
Broken clouds at a height of 4000 ft
Overcast at a height of 6500 ft
light rain

METAR: KDXR 221653Z 30006KT 10SM -RA FEW031 BKN040 OVC065 16/10 A3001 RMK AO2 RAE25B49 SLP162 P0000 T01610100

Time: 13:31 (17:31 UTC)


TAF: missing

Weather observations and forecasts of more than 4000 airports (METAR and TAF reports).

The available stations are represented by yellow and red dots on the map.

Hover mouse over dot to see the name of the station.

Then click to see weather observations and forecasts.

To change the map : click on the green buttons with a black cross to zoom in, on the green button with a dash to zoom out, or on the green arrows for adjacent maps.


METAR-TAF: